sensor_id;sensor_type;location;lat;lon;timestamp;P1;durP1;ratioP1;P2;durP2;ratioP2
21091;SDS011;10704;42.678;23.288;2022-11-20T00:01:11;4.85;;;1.30;;
21091;SDS011;10704;42.678;23.288;2022-11-20T00:03:41;8.35;;;1.00;;
21091;SDS011;10704;42.678;23.288;2022-11-20T00:06:08;5.35;;;0.88;;
21091;SDS011;10704;42.678;23.288;2022-11-20T00:08:36;3.30;;;0.80;;
21091;SDS011;10704;42.678;23.288;2022-11-20T00:11:06;3.83;;;1.10;;
21091;SDS011;10704;42.678;23.288;2022-11-20T00:13:33;4.60;;;1.00;;
21091;SDS011;10704;42.678;23.288;2022-11-20T00:16:00;2.72;;;0.85;;
21091;SDS011;10704;42.678;23.288;2022-11-20T00:18:27;3.17;;;1.02;;
21091;SDS011;10704;42.678;23.288;2022-11-20T00:20:59;2.92;;;0.95;;
21091;SDS011;10704;42.678;23.288;2022-11-20T00:23:29;3.92;;;0.95;;
21091;SDS011;10704;42.678;23.288;2022-11-20T00:25:55;2.97;;;1.30;;
21091;SDS011;10704;42.678;23.288;2022-11-20T00:28:21;5.60;;;0.75;;
21091;SDS011;10704;42.678;23.288;2022-11-20T00:31:10;2.35;;;0.82;;
21091;SDS011;10704;42.678;23.288;2022-11-20T00:33:37;1.88;;;0.75;;
21091;SDS011;10704;42.678;23.288;2022-11-20T00:36:04;2.90;;;1.13;;
21091;SDS011;10704;42.678;23.288;2022-11-20T00:38:32;3.80;;;0.77;;
21091;SDS011;10704;42.678;23.288;2022-11-20T00:40:59;3.60;;;0.90;;
21091;SDS011;10704;42.678;23.288;2022-11-20T00:43:26;3.40;;;1.10;;
21091;SDS011;10704;42.678;23.288;2022-11-20T00:45:59;2.83;;;0.70;;
21091;SDS011;10704;42.678;23.288;2022-11-20T00:52:33;4.35;;;0.65;;
21091;SDS011;10704;42.678;23.288;2022-11-20T00:54:59;3.45;;;0.85;;
21091;SDS011;10704;42.678;23.288;2022-11-20T00:57:25;2.97;;;0.80;;
21091;SDS011;10704;42.678;23.288;2022-11-20T00:59:51;3.10;;;0.85;;
21091;SDS011;10704;42.678;23.288;2022-11-20T01:02:17;2.58;;;1.00;;
21091;SDS011;10704;42.678;23.288;2022-11-20T01:04:42;4.35;;;0.88;;
21091;SDS011;10704;42.678;23.288;2022-11-20T01:07:08;2.13;;;0.80;;
21091;SDS011;10704;42.678;23.288;2022-11-20T01:09:34;3.10;;;0.93;;
21091;SDS011;10704;42.678;23.288;2022-11-20T01:12:00;5.50;;;0.98;;
21091;SDS011;10704;42.678;23.288;2022-11-20T01:14:26;5.22;;;0.85;;
21091;SDS011;10704;42.678;23.288;2022-11-20T01:16:52;3.13;;;0.82;;
21091;SDS011;10704;42.678;23.288;2022-11-20T01:23:19;1.33;;;0.63;;
21091;SDS011;10704;42.678;23.288;2022-11-20T01:25:45;2.78;;;0.95;;
21091;SDS011;10704;42.678;23.288;2022-11-20T01:31:33;3.72;;;0.93;;
21091;SDS011;10704;42.678;23.288;2022-11-20T01:34:01;4.28;;;0.90;;
21091;SDS011;10704;42.678;23.288;2022-11-20T01:36:29;1.98;;;0.90;;
21091;SDS011;10704;42.678;23.288;2022-11-20T01:38:57;5.28;;;1.27;;
21091;SDS011;10704;42.678;23.288;2022-11-20T01:41:26;4.35;;;0.80;;
21091;SDS011;10704;42.678;23.288;2022-11-20T01:44:14;1.85;;;0.60;;
21091;SDS011;10704;42.678;23.288;2022-11-20T01:46:42;2.15;;;0.65;;
21091;SDS011;10704;42.678;23.288;2022-11-20T01:51:54;2.58;;;0.70;;
21091;SDS011;10704;42.678;23.288;2022-11-20T01:54:24;4.70;;;0.93;;
21091;SDS011;10704;42.678;23.288;2022-11-20T01:56:55;4.35;;;1.00;;
21091;SDS011;10704;42.678;23.288;2022-11-20T01:59:23;4.05;;;1.10;;
21091;SDS011;10704;42.678;23.288;2022-11-20T02:05:40;6.22;;;1.00;;
21091;SDS011;10704;42.678;23.288;2022-11-20T02:08:14;3.55;;;0.88;;
21091;SDS011;10704;42.678;23.288;2022-11-20T02:10:41;1.83;;;0.70;;
21091;SDS011;10704;42.678;23.288;2022-11-20T02:13:07;3.97;;;1.20;;
21091;SDS011;10704;42.678;23.288;2022-11-20T02:15:52;3.03;;;0.90;;
21091;SDS011;10704;42.678;23.288;2022-11-20T02:18:19;2.88;;;0.70;;
21091;SDS011;10704;42.678;23.288;2022-11-20T02:24:33;3.38;;;0.70;;
21091;SDS011;10704;42.678;23.288;2022-11-20T02:27:01;6.10;;;0.80;;
21091;SDS011;10704;42.678;23.288;2022-11-20T02:33:22;1.85;;;0.82;;
21091;SDS011;10704;42.678;23.288;2022-11-20T02:35:48;4.47;;;1.00;;
21091;SDS011;10704;42.678;23.288;2022-11-20T02:38:14;2.45;;;0.70;;
21091;SDS011;10704;42.678;23.288;2022-11-20T02:40:41;2.58;;;0.85;;
21091;SDS011;10704;42.678;23.288;2022-11-20T02:43:07;1.58;;;0.60;;
21091;SDS011;10704;42.678;23.288;2022-11-20T02:45:34;4.97;;;1.25;;
21091;SDS011;10704;42.678;23.288;2022-11-20T02:48:00;3.28;;;0.93;;
21091;SDS011;10704;42.678;23.288;2022-11-20T02:53:11;2.20;;;0.73;;
21091;SDS011;10704;42.678;23.288;2022-11-20T02:55:37;2.35;;;0.90;;
21091;SDS011;10704;42.678;23.288;2022-11-20T02:58:03;3.92;;;0.98;;
21091;SDS011;10704;42.678;23.288;2022-11-20T03:00:29;4.65;;;1.08;;
21091;SDS011;10704;42.678;23.288;2022-11-20T03:02:55;6.25;;;1.63;;
21091;SDS011;10704;42.678;23.288;2022-11-20T03:08:20;5.50;;;1.17;;
21091;SDS011;10704;42.678;23.288;2022-11-20T03:14:34;6.03;;;1.67;;
21091;SDS011;10704;42.678;23.288;2022-11-20T03:17:00;3.55;;;1.10;;
21091;SDS011;10704;42.678;23.288;2022-11-20T03:19:26;5.68;;;1.23;;
21091;SDS011;10704;42.678;23.288;2022-11-20T03:21:52;6.88;;;0.90;;
21091;SDS011;10704;42.678;23.288;2022-11-20T03:24:17;4.65;;;1.30;;
21091;SDS011;10704;42.678;23.288;2022-11-20T03:26:43;2.83;;;0.95;;
21091;SDS011;10704;42.678;23.288;2022-11-20T03:29:09;2.80;;;0.95;;
21091;SDS011;10704;42.678;23.288;2022-11-20T03:31:36;4.47;;;0.98;;
21091;SDS011;10704;42.678;23.288;2022-11-20T03:34:05;4.43;;;1.00;;
21091;SDS011;10704;42.678;23.288;2022-11-20T03:36:33;3.95;;;0.90;;
21091;SDS011;10704;42.678;23.288;2022-11-20T03:39:00;3.92;;;0.98;;
21091;SDS011;10704;42.678;23.288;2022-11-20T03:41:28;3.58;;;1.10;;
21091;SDS011;10704;42.678;23.288;2022-11-20T03:46:25;4.68;;;1.13;;
21091;SDS011;10704;42.678;23.288;2022-11-20T03:48:52;1.55;;;0.73;;
21091;SDS011;10704;42.678;23.288;2022-11-20T03:53:46;4.18;;;1.00;;
21091;SDS011;10704;42.678;23.288;2022-11-20T04:02:41;5.63;;;1.35;;
21091;SDS011;10704;42.678;23.288;2022-11-20T04:05:07;1.98;;;0.90;;
21091;SDS011;10704;42.678;23.288;2022-11-20T04:15:21;2.15;;;0.80;;
21091;SDS011;10704;42.678;23.288;2022-11-20T04:17:47;4.88;;;0.90;;
21091;SDS011;10704;42.678;23.288;2022-11-20T04:20:13;6.22;;;1.20;;
21091;SDS011;10704;42.678;23.288;2022-11-20T04:22:39;3.08;;;0.80;;
21091;SDS011;10704;42.678;23.288;2022-11-20T04:25:05;6.38;;;1.00;;
21091;SDS011;10704;42.678;23.288;2022-11-20T04:27:31;4.75;;;0.90;;
21091;SDS011;10704;42.678;23.288;2022-11-20T04:29:57;4.13;;;0.90;;
21091;SDS011;10704;42.678;23.288;2022-11-20T04:35:08;3.20;;;0.90;;
21091;SDS011;10704;42.678;23.288;2022-11-20T04:40:44;5.35;;;1.00;;
21091;SDS011;10704;42.678;23.288;2022-11-20T04:43:09;4.60;;;1.10;;
21091;SDS011;10704;42.678;23.288;2022-11-20T04:53:09;4.95;;;1.10;;
21091;SDS011;10704;42.678;23.288;2022-11-20T04:55:35;2.75;;;0.70;;
21091;SDS011;10704;42.678;23.288;2022-11-20T05:01:48;4.25;;;0.80;;
21091;SDS011;10704;42.678;23.288;2022-11-20T05:04:14;4.75;;;0.90;;
21091;SDS011;10704;42.678;23.288;2022-11-20T05:06:40;2.97;;;0.82;;
21091;SDS011;10704;42.678;23.288;2022-11-20T05:12:12;3.83;;;0.63;;
21091;SDS011;10704;42.678;23.288;2022-11-20T05:14:38;3.65;;;0.88;;
21091;SDS011;10704;42.678;23.288;2022-11-20T05:17:04;4.00;;;0.70;;
21091;SDS011;10704;42.678;23.288;2022-11-20T05:19:30;6.95;;;0.85;;
21091;SDS011;10704;42.678;23.288;2022-11-20T05:21:56;3.85;;;1.17;;
21091;SDS011;10704;42.678;23.288;2022-11-20T05:24:22;5.00;;;0.98;;
21091;SDS011;10704;42.678;23.288;2022-11-20T05:26:47;7.65;;;1.90;;
21091;SDS011;10704;42.678;23.288;2022-11-20T05:29:13;2.55;;;0.90;;
21091;SDS011;10704;42.678;23.288;2022-11-20T05:31:40;4.28;;;0.80;;
21091;SDS011;10704;42.678;23.288;2022-11-20T05:34:06;4.65;;;0.60;;
21091;SDS011;10704;42.678;23.288;2022-11-20T05:36:33;5.40;;;1.08;;
21091;SDS011;10704;42.678;23.288;2022-11-20T05:38:59;4.68;;;0.80;;
21091;SDS011;10704;42.678;23.288;2022-11-20T05:41:24;2.40;;;0.73;;
21091;SDS011;10704;42.678;23.288;2022-11-20T05:47:23;4.13;;;0.88;;
21091;SDS011;10704;42.678;23.288;2022-11-20T05:49:49;4.90;;;1.02;;
21091;SDS011;10704;42.678;23.288;2022-11-20T05:52:14;5.80;;;1.02;;
21091;SDS011;10704;42.678;23.288;2022-11-20T05:58:27;3.33;;;1.25;;
21091;SDS011;10704;42.678;23.288;2022-11-20T06:00:54;2.35;;;0.88;;
21091;SDS011;10704;42.678;23.288;2022-11-20T06:03:28;3.90;;;0.95;;
21091;SDS011;10704;42.678;23.288;2022-11-20T06:05:53;2.33;;;0.60;;
21091;SDS011;10704;42.678;23.288;2022-11-20T06:08:19;5.30;;;1.15;;
21091;SDS011;10704;42.678;23.288;2022-11-20T06:10:45;5.35;;;1.30;;
21091;SDS011;10704;42.678;23.288;2022-11-20T06:13:11;3.88;;;1.02;;
21091;SDS011;10704;42.678;23.288;2022-11-20T06:15:37;8.25;;;1.33;;
21091;SDS011;10704;42.678;23.288;2022-11-20T06:18:03;2.60;;;1.05;;
21091;SDS011;10704;42.678;23.288;2022-11-20T06:20:29;6.40;;;1.20;;
21091;SDS011;10704;42.678;23.288;2022-11-20T06:22:59;5.05;;;1.52;;
21091;SDS011;10704;42.678;23.288;2022-11-20T06:25:24;7.93;;;1.00;;
21091;SDS011;10704;42.678;23.288;2022-11-20T06:30:59;6.20;;;1.30;;
21091;SDS011;10704;42.678;23.288;2022-11-20T06:33:25;4.60;;;1.20;;
21091;SDS011;10704;42.678;23.288;2022-11-20T06:35:51;5.90;;;1.40;;
21091;SDS011;10704;42.678;23.288;2022-11-20T06:38:17;4.07;;;0.93;;
21091;SDS011;10704;42.678;23.288;2022-11-20T06:40:43;1.80;;;0.77;;
21091;SDS011;10704;42.678;23.288;2022-11-20T06:43:09;2.10;;;0.85;;
21091;SDS011;10704;42.678;23.288;2022-11-20T06:48:17;6.85;;;1.38;;
21091;SDS011;10704;42.678;23.288;2022-11-20T06:50:51;7.22;;;1.52;;
21091;SDS011;10704;42.678;23.288;2022-11-20T06:53:17;5.63;;;1.40;;
21091;SDS011;10704;42.678;23.288;2022-11-20T06:55:43;6.47;;;1.63;;
21091;SDS011;10704;42.678;23.288;2022-11-20T06:58:11;7.75;;;1.75;;
21091;SDS011;10704;42.678;23.288;2022-11-20T07:00:38;4.38;;;1.38;;
21091;SDS011;10704;42.678;23.288;2022-11-20T07:03:04;4.18;;;1.60;;
21091;SDS011;10704;42.678;23.288;2022-11-20T07:05:30;7.38;;;2.13;;
21091;SDS011;10704;42.678;23.288;2022-11-20T07:07:56;5.13;;;1.30;;
21091;SDS011;10704;42.678;23.288;2022-11-20T07:10:23;4.57;;;1.20;;
21091;SDS011;10704;42.678;23.288;2022-11-20T07:16:36;3.85;;;1.10;;
21091;SDS011;10704;42.678;23.288;2022-11-20T07:23:02;7.45;;;1.25;;
21091;SDS011;10704;42.678;23.288;2022-11-20T07:25:28;3.28;;;0.80;;
21091;SDS011;10704;42.678;23.288;2022-11-20T07:27:59;4.05;;;1.10;;
21091;SDS011;10704;42.678;23.288;2022-11-20T07:30:29;5.30;;;1.50;;
21091;SDS011;10704;42.678;23.288;2022-11-20T07:32:55;4.47;;;1.20;;
21091;SDS011;10704;42.678;23.288;2022-11-20T07:35:22;3.55;;;1.45;;
21091;SDS011;10704;42.678;23.288;2022-11-20T07:37:49;9.27;;;1.50;;
21091;SDS011;10704;42.678;23.288;2022-11-20T07:40:15;6.88;;;1.50;;
21091;SDS011;10704;42.678;23.288;2022-11-20T07:42:51;5.97;;;1.33;;
21091;SDS011;10704;42.678;23.288;2022-11-20T07:45:18;6.63;;;1.30;;
21091;SDS011;10704;42.678;23.288;2022-11-20T07:47:45;6.03;;;1.35;;
21091;SDS011;10704;42.678;23.288;2022-11-20T07:50:12;4.30;;;1.00;;
21091;SDS011;10704;42.678;23.288;2022-11-20T07:52:38;7.15;;;1.13;;
21091;SDS011;10704;42.678;23.288;2022-11-20T07:55:04;6.00;;;1.10;;
21091;SDS011;10704;42.678;23.288;2022-11-20T07:57:30;5.68;;;1.40;;
21091;SDS011;10704;42.678;23.288;2022-11-20T07:59:56;4.70;;;1.67;;
21091;SDS011;10704;42.678;23.288;2022-11-20T08:02:22;5.13;;;1.50;;
21091;SDS011;10704;42.678;23.288;2022-11-20T08:04:48;5.30;;;1.58;;
21091;SDS011;10704;42.678;23.288;2022-11-20T08:07:14;6.53;;;1.98;;
21091;SDS011;10704;42.678;23.288;2022-11-20T08:09:40;7.18;;;2.15;;
21091;SDS011;10704;42.678;23.288;2022-11-20T08:12:07;5.15;;;2.00;;
21091;SDS011;10704;42.678;23.288;2022-11-20T08:14:51;9.55;;;2.20;;
21091;SDS011;10704;42.678;23.288;2022-11-20T08:17:17;7.90;;;2.03;;
21091;SDS011;10704;42.678;23.288;2022-11-20T08:19:43;4.53;;;1.98;;
21091;SDS011;10704;42.678;23.288;2022-11-20T08:22:09;4.72;;;1.80;;
21091;SDS011;10704;42.678;23.288;2022-11-20T08:24:35;7.00;;;1.50;;
21091;SDS011;10704;42.678;23.288;2022-11-20T08:27:01;7.93;;;1.65;;
21091;SDS011;10704;42.678;23.288;2022-11-20T08:29:27;9.32;;;3.05;;
21091;SDS011;10704;42.678;23.288;2022-11-20T08:31:53;7.25;;;3.10;;
21091;SDS011;10704;42.678;23.288;2022-11-20T08:34:18;8.07;;;2.28;;
21091;SDS011;10704;42.678;23.288;2022-11-20T08:36:44;10.85;;;2.10;;
21091;SDS011;10704;42.678;23.288;2022-11-20T08:39:11;10.07;;;2.47;;
21091;SDS011;10704;42.678;23.288;2022-11-20T08:41:38;10.80;;;2.53;;
21091;SDS011;10704;42.678;23.288;2022-11-20T08:44:05;8.68;;;1.25;;
21091;SDS011;10704;42.678;23.288;2022-11-20T08:46:33;6.97;;;1.80;;
21091;SDS011;10704;42.678;23.288;2022-11-20T08:49:04;5.50;;;1.63;;
21091;SDS011;10704;42.678;23.288;2022-11-20T08:51:32;6.28;;;1.80;;
21091;SDS011;10704;42.678;23.288;2022-11-20T08:53:58;5.90;;;1.48;;
21091;SDS011;10704;42.678;23.288;2022-11-20T08:56:24;10.27;;;2.13;;
21091;SDS011;10704;42.678;23.288;2022-11-20T08:58:51;5.05;;;2.42;;
21091;SDS011;10704;42.678;23.288;2022-11-20T09:01:18;7.20;;;2.78;;
21091;SDS011;10704;42.678;23.288;2022-11-20T09:03:45;8.95;;;3.20;;
21091;SDS011;10704;42.678;23.288;2022-11-20T09:06:11;8.90;;;3.95;;
21091;SDS011;10704;42.678;23.288;2022-11-20T09:08:38;6.75;;;2.28;;
21091;SDS011;10704;42.678;23.288;2022-11-20T09:11:04;9.52;;;2.42;;
21091;SDS011;10704;42.678;23.288;2022-11-20T09:13:31;8.65;;;2.30;;
21091;SDS011;10704;42.678;23.288;2022-11-20T09:16:02;5.90;;;2.97;;
21091;SDS011;10704;42.678;23.288;2022-11-20T09:18:30;5.78;;;2.72;;
21091;SDS011;10704;42.678;23.288;2022-11-20T09:21:02;7.47;;;2.30;;
21091;SDS011;10704;42.678;23.288;2022-11-20T09:23:34;7.60;;;2.00;;
21091;SDS011;10704;42.678;23.288;2022-11-20T09:26:01;4.78;;;1.55;;
21091;SDS011;10704;42.678;23.288;2022-11-20T09:28:32;6.43;;;1.67;;
21091;SDS011;10704;42.678;23.288;2022-11-20T09:30:58;5.20;;;1.38;;
21091;SDS011;10704;42.678;23.288;2022-11-20T09:33:25;4.22;;;1.30;;
21091;SDS011;10704;42.678;23.288;2022-11-20T09:35:51;6.20;;;1.38;;
21091;SDS011;10704;42.678;23.288;2022-11-20T09:38:17;3.15;;;1.17;;
21091;SDS011;10704;42.678;23.288;2022-11-20T09:41:18;8.68;;;1.80;;
21091;SDS011;10704;42.678;23.288;2022-11-20T09:44:19;6.47;;;1.70;;
21091;SDS011;10704;42.678;23.288;2022-11-20T09:53:22;6.78;;;1.88;;
21091;SDS011;10704;42.678;23.288;2022-11-20T09:55:44;4.50;;;2.08;;
21091;SDS011;10704;42.678;23.288;2022-11-20T10:01:04;5.68;;;1.65;;
21091;SDS011;10704;42.678;23.288;2022-11-20T10:03:41;4.40;;;1.60;;
21091;SDS011;10704;42.678;23.288;2022-11-20T10:06:28;7.28;;;1.63;;
21091;SDS011;10704;42.678;23.288;2022-11-20T10:08:58;7.80;;;2.22;;
21091;SDS011;10704;42.678;23.288;2022-11-20T10:11:35;5.70;;;2.42;;
21091;SDS011;10704;42.678;23.288;2022-11-20T10:19:56;11.27;;;2.97;;
21091;SDS011;10704;42.678;23.288;2022-11-20T10:30:20;9.13;;;2.45;;
21091;SDS011;10704;42.678;23.288;2022-11-20T10:32:51;6.85;;;3.03;;
21091;SDS011;10704;42.678;23.288;2022-11-20T10:35:25;8.10;;;3.33;;
21091;SDS011;10704;42.678;23.288;2022-11-20T10:38:00;8.82;;;2.67;;
21091;SDS011;10704;42.678;23.288;2022-11-20T10:43:19;12.52;;;3.08;;
21091;SDS011;10704;42.678;23.288;2022-11-20T10:45:57;10.23;;;3.08;;
21091;SDS011;10704;42.678;23.288;2022-11-20T10:48:33;12.85;;;4.28;;
21091;SDS011;10704;42.678;23.288;2022-11-20T10:51:10;13.05;;;3.72;;
21091;SDS011;10704;42.678;23.288;2022-11-20T10:53:46;13.27;;;3.88;;
21091;SDS011;10704;42.678;23.288;2022-11-20T10:56:27;10.80;;;4.20;;
21091;SDS011;10704;42.678;23.288;2022-11-20T11:01:43;17.23;;;6.00;;
21091;SDS011;10704;42.678;23.288;2022-11-20T11:04:21;25.52;;;8.80;;
21091;SDS011;10704;42.678;23.288;2022-11-20T11:06:58;13.77;;;3.35;;
21091;SDS011;10704;42.678;23.288;2022-11-20T11:09:47;7.95;;;1.55;;
21091;SDS011;10704;42.678;23.288;2022-11-20T11:12:15;4.55;;;1.55;;
21091;SDS011;10704;42.678;23.288;2022-11-20T11:14:45;4.82;;;1.40;;
21091;SDS011;10704;42.678;23.288;2022-11-20T11:17:23;7.57;;;1.42;;
21091;SDS011;10704;42.678;23.288;2022-11-20T11:20:00;2.88;;;1.00;;
21091;SDS011;10704;42.678;23.288;2022-11-20T11:22:29;3.63;;;1.33;;
21091;SDS011;10704;42.678;23.288;2022-11-20T11:24:57;5.15;;;1.35;;
21091;SDS011;10704;42.678;23.288;2022-11-20T11:27:24;5.00;;;1.30;;
21091;SDS011;10704;42.678;23.288;2022-11-20T11:29:50;3.67;;;0.77;;
21091;SDS011;10704;42.678;23.288;2022-11-20T11:32:39;4.53;;;1.13;;
21091;SDS011;10704;42.678;23.288;2022-11-20T11:35:06;4.03;;;0.73;;
21091;SDS011;10704;42.678;23.288;2022-11-20T11:37:44;5.57;;;1.17;;
21091;SDS011;10704;42.678;23.288;2022-11-20T11:40:12;4.40;;;0.65;;
21091;SDS011;10704;42.678;23.288;2022-11-20T11:42:43;3.35;;;0.70;;
21091;SDS011;10704;42.678;23.288;2022-11-20T11:45:15;3.67;;;1.30;;
21091;SDS011;10704;42.678;23.288;2022-11-20T11:53:07;5.55;;;0.80;;
21091;SDS011;10704;42.678;23.288;2022-11-20T11:55:32;3.33;;;1.02;;
21091;SDS011;10704;42.678;23.288;2022-11-20T12:06:35;6.70;;;1.23;;
21091;SDS011;10704;42.678;23.288;2022-11-20T12:09:05;6.78;;;1.17;;
21091;SDS011;10704;42.678;23.288;2022-11-20T12:11:54;3.83;;;1.00;;
21091;SDS011;10704;42.678;23.288;2022-11-20T12:14:34;4.78;;;1.38;;
21091;SDS011;10704;42.678;23.288;2022-11-20T12:17:04;4.78;;;1.00;;
21091;SDS011;10704;42.678;23.288;2022-11-20T12:19:33;5.40;;;1.20;;
21091;SDS011;10704;42.678;23.288;2022-11-20T12:24:59;4.18;;;1.50;;
21091;SDS011;10704;42.678;23.288;2022-11-20T12:28:15;8.23;;;1.95;;
21091;SDS011;10704;42.678;23.288;2022-11-20T12:33:46;5.60;;;0.90;;
21091;SDS011;10704;42.678;23.288;2022-11-20T12:39:29;5.25;;;1.23;;
21091;SDS011;10704;42.678;23.288;2022-11-20T12:59:00;5.70;;;2.25;;
21091;SDS011;10704;42.678;23.288;2022-11-20T13:01:48;6.32;;;2.38;;
21091;SDS011;10704;42.678;23.288;2022-11-20T13:07:11;6.75;;;3.53;;
21091;SDS011;10704;42.678;23.288;2022-11-20T13:09:40;10.73;;;3.97;;
21091;SDS011;10704;42.678;23.288;2022-11-20T13:15:05;12.25;;;3.83;;
21091;SDS011;10704;42.678;23.288;2022-11-20T13:27:02;11.43;;;3.60;;
21091;SDS011;10704;42.678;23.288;2022-11-20T13:29:31;8.88;;;4.28;;
21091;SDS011;10704;42.678;23.288;2022-11-20T13:32:05;13.65;;;7.03;;
21091;SDS011;10704;42.678;23.288;2022-11-20T13:34:38;15.07;;;8.30;;
21091;SDS011;10704;42.678;23.288;2022-11-20T13:37:24;13.82;;;7.40;;
21091;SDS011;10704;42.678;23.288;2022-11-20T13:42:35;14.30;;;5.15;;
21091;SDS011;10704;42.678;23.288;2022-11-20T13:45:27;10.88;;;5.03;;
21091;SDS011;10704;42.678;23.288;2022-11-20T13:47:57;9.65;;;4.47;;
21091;SDS011;10704;42.678;23.288;2022-11-20T13:50:54;10.77;;;4.05;;
21091;SDS011;10704;42.678;23.288;2022-11-20T13:56:48;9.48;;;4.13;;
21091;SDS011;10704;42.678;23.288;2022-11-20T13:59:21;10.65;;;3.97;;
21091;SDS011;10704;42.678;23.288;2022-11-20T14:01:50;10.38;;;4.18;;
21091;SDS011;10704;42.678;23.288;2022-11-20T14:04:18;11.50;;;4.80;;
21091;SDS011;10704;42.678;23.288;2022-11-20T14:06:52;8.90;;;4.13;;
21091;SDS011;10704;42.678;23.288;2022-11-20T14:09:25;12.70;;;5.18;;
21091;SDS011;10704;42.678;23.288;2022-11-20T14:11:51;12.13;;;5.45;;
21091;SDS011;10704;42.678;23.288;2022-11-20T14:14:19;11.30;;;5.30;;
21091;SDS011;10704;42.678;23.288;2022-11-20T14:16:47;8.50;;;4.13;;
21091;SDS011;10704;42.678;23.288;2022-11-20T14:19:22;6.93;;;3.95;;
21091;SDS011;10704;42.678;23.288;2022-11-20T14:24:41;9.77;;;3.90;;
21091;SDS011;10704;42.678;23.288;2022-11-20T14:27:20;8.95;;;3.90;;
21091;SDS011;10704;42.678;23.288;2022-11-20T14:29:47;9.63;;;3.58;;
21091;SDS011;10704;42.678;23.288;2022-11-20T14:32:16;9.50;;;4.20;;
21091;SDS011;10704;42.678;23.288;2022-11-20T14:34:44;11.43;;;5.75;;
21091;SDS011;10704;42.678;23.288;2022-11-20T14:37:13;15.00;;;7.72;;
21091;SDS011;10704;42.678;23.288;2022-11-20T14:39:53;14.10;;;6.50;;
21091;SDS011;10704;42.678;23.288;2022-11-20T14:42:21;12.40;;;6.75;;
21091;SDS011;10704;42.678;23.288;2022-11-20T14:44:49;14.38;;;8.02;;
21091;SDS011;10704;42.678;23.288;2022-11-20T14:47:21;9.80;;;5.68;;
21091;SDS011;10704;42.678;23.288;2022-11-20T14:49:52;14.05;;;6.57;;
21091;SDS011;10704;42.678;23.288;2022-11-20T14:52:19;9.63;;;4.00;;
21091;SDS011;10704;42.678;23.288;2022-11-20T14:54:51;8.98;;;3.05;;
21091;SDS011;10704;42.678;23.288;2022-11-20T14:57:24;9.13;;;3.67;;
21091;SDS011;10704;42.678;23.288;2022-11-20T15:00:17;8.93;;;4.22;;
21091;SDS011;10704;42.678;23.288;2022-11-20T15:02:46;9.15;;;4.32;;
21091;SDS011;10704;42.678;23.288;2022-11-20T15:05:14;8.43;;;4.63;;
21091;SDS011;10704;42.678;23.288;2022-11-20T15:07:42;3.58;;;1.95;;
21091;SDS011;10704;42.678;23.288;2022-11-20T15:10:25;4.97;;;2.17;;
21091;SDS011;10704;42.678;23.288;2022-11-20T15:12:53;6.95;;;1.75;;
21091;SDS011;10704;42.678;23.288;2022-11-20T15:18:04;4.03;;;2.17;;
21091;SDS011;10704;42.678;23.288;2022-11-20T15:20:35;11.05;;;5.57;;
21091;SDS011;10704;42.678;23.288;2022-11-20T15:23:01;9.95;;;4.45;;
21091;SDS011;10704;42.678;23.288;2022-11-20T15:29:21;11.07;;;5.78;;
21091;SDS011;10704;42.678;23.288;2022-11-20T15:31:48;6.25;;;2.55;;
21091;SDS011;10704;42.678;23.288;2022-11-20T15:34:16;17.63;;;7.72;;
21091;SDS011;10704;42.678;23.288;2022-11-20T15:36:42;7.35;;;3.17;;
21091;SDS011;10704;42.678;23.288;2022-11-20T15:39:08;9.80;;;3.65;;
21091;SDS011;10704;42.678;23.288;2022-11-20T15:41:36;15.75;;;7.53;;
21091;SDS011;10704;42.678;23.288;2022-11-20T15:44:03;7.97;;;3.10;;
21091;SDS011;10704;42.678;23.288;2022-11-20T15:46:33;8.15;;;3.55;;
21091;SDS011;10704;42.678;23.288;2022-11-20T15:49:03;6.63;;;2.88;;
21091;SDS011;10704;42.678;23.288;2022-11-20T15:51:30;8.65;;;2.97;;
21091;SDS011;10704;42.678;23.288;2022-11-20T15:53:59;8.88;;;4.07;;
21091;SDS011;10704;42.678;23.288;2022-11-20T15:56:26;9.10;;;4.35;;
21091;SDS011;10704;42.678;23.288;2022-11-20T15:58:52;11.70;;;5.10;;
21091;SDS011;10704;42.678;23.288;2022-11-20T16:01:19;16.50;;;9.00;;
21091;SDS011;10704;42.678;23.288;2022-11-20T16:03:47;10.45;;;5.63;;
21091;SDS011;10704;42.678;23.288;2022-11-20T16:06:13;15.75;;;8.30;;
21091;SDS011;10704;42.678;23.288;2022-11-20T16:08:41;12.20;;;6.78;;
21091;SDS011;10704;42.678;23.288;2022-11-20T16:11:10;14.48;;;6.88;;
21091;SDS011;10704;42.678;23.288;2022-11-20T16:13:38;10.20;;;5.63;;
21091;SDS011;10704;42.678;23.288;2022-11-20T16:16:23;16.60;;;8.52;;
21091;SDS011;10704;42.678;23.288;2022-11-20T16:18:54;21.25;;;9.57;;
21091;SDS011;10704;42.678;23.288;2022-11-20T16:21:20;19.33;;;7.95;;
21091;SDS011;10704;42.678;23.288;2022-11-20T16:23:45;14.93;;;7.90;;
21091;SDS011;10704;42.678;23.288;2022-11-20T16:26:12;13.27;;;6.95;;
21091;SDS011;10704;42.678;23.288;2022-11-20T16:28:42;17.75;;;8.18;;
21091;SDS011;10704;42.678;23.288;2022-11-20T16:31:12;12.95;;;7.10;;
21091;SDS011;10704;42.678;23.288;2022-11-20T16:33:43;12.10;;;6.57;;
21091;SDS011;10704;42.678;23.288;2022-11-20T16:36:14;10.25;;;5.60;;
21091;SDS011;10704;42.678;23.288;2022-11-20T16:38:41;11.55;;;5.35;;
21091;SDS011;10704;42.678;23.288;2022-11-20T16:41:07;19.33;;;8.68;;
21091;SDS011;10704;42.678;23.288;2022-11-20T16:43:47;15.65;;;9.65;;
21091;SDS011;10704;42.678;23.288;2022-11-20T16:46:15;14.82;;;7.47;;
21091;SDS011;10704;42.678;23.288;2022-11-20T16:48:42;11.43;;;7.45;;
21091;SDS011;10704;42.678;23.288;2022-11-20T16:51:09;17.92;;;10.00;;
21091;SDS011;10704;42.678;23.288;2022-11-20T16:53:36;21.05;;;10.63;;
21091;SDS011;10704;42.678;23.288;2022-11-20T16:56:15;15.90;;;9.82;;
21091;SDS011;10704;42.678;23.288;2022-11-20T16:58:46;12.70;;;7.68;;
21091;SDS011;10704;42.678;23.288;2022-11-20T17:05:00;35.05;;;9.52;;
21091;SDS011;10704;42.678;23.288;2022-11-20T17:07:26;14.52;;;8.98;;
21091;SDS011;10704;42.678;23.288;2022-11-20T17:09:52;10.93;;;6.70;;
21091;SDS011;10704;42.678;23.288;2022-11-20T17:12:18;20.63;;;12.45;;
21091;SDS011;10704;42.678;23.288;2022-11-20T17:14:44;10.70;;;6.72;;
21091;SDS011;10704;42.678;23.288;2022-11-20T17:17:10;8.80;;;4.15;;
21091;SDS011;10704;42.678;23.288;2022-11-20T17:19:36;10.38;;;4.50;;
21091;SDS011;10704;42.678;23.288;2022-11-20T17:22:02;8.18;;;3.88;;
21091;SDS011;10704;42.678;23.288;2022-11-20T17:24:28;7.32;;;3.75;;
21091;SDS011;10704;42.678;23.288;2022-11-20T17:26:53;6.35;;;4.05;;
21091;SDS011;10704;42.678;23.288;2022-11-20T17:29:19;12.70;;;8.75;;
21091;SDS011;10704;42.678;23.288;2022-11-20T17:31:48;9.85;;;6.63;;
21091;SDS011;10704;42.678;23.288;2022-11-20T17:34:15;12.98;;;6.70;;
21091;SDS011;10704;42.678;23.288;2022-11-20T17:36:42;9.48;;;5.15;;
21091;SDS011;10704;42.678;23.288;2022-11-20T17:39:14;10.07;;;3.90;;
21091;SDS011;10704;42.678;23.288;2022-11-20T17:41:41;12.10;;;5.97;;
21091;SDS011;10704;42.678;23.288;2022-11-20T17:44:08;7.35;;;4.50;;
21091;SDS011;10704;42.678;23.288;2022-11-20T17:46:35;7.57;;;4.90;;
21091;SDS011;10704;42.678;23.288;2022-11-20T17:49:01;7.68;;;4.25;;
21091;SDS011;10704;42.678;23.288;2022-11-20T17:51:28;7.43;;;4.38;;
21091;SDS011;10704;42.678;23.288;2022-11-20T17:53:58;10.80;;;5.13;;
21091;SDS011;10704;42.678;23.288;2022-11-20T17:56:25;8.68;;;4.60;;
21091;SDS011;10704;42.678;23.288;2022-11-20T17:59:13;8.13;;;5.28;;
21091;SDS011;10704;42.678;23.288;2022-11-20T18:01:39;11.00;;;4.85;;